createdAt,value
2022-11-24T00:02:58.902Z,-1.31
2022-11-24T00:08:21.977Z,-1.29
2022-11-24T00:13:45.707Z,-1.28
2022-11-24T00:19:18.395Z,-1.27
2022-11-24T00:24:38.012Z,-1.31
2022-11-24T00:30:02.230Z,-1.31
2022-11-24T00:35:27.245Z,-1.31
2022-11-24T00:40:50.716Z,-1.30
2022-11-24T00:46:13.893Z,-1.36
2022-11-24T00:51:39.395Z,-1.38
2022-11-24T00:57:03.660Z,-1.34
2022-11-24T01:02:27.371Z,-1.42
2022-11-24T01:07:50.686Z,-1.41
2022-11-24T01:13:13.827Z,-1.45
2022-11-24T01:18:36.479Z,-1.45
2022-11-24T01:23:59.366Z,-1.44
2022-11-24T01:29:23.707Z,-1.42
2022-11-24T01:34:48.463Z,-1.45
2022-11-24T01:40:13.907Z,-1.39
2022-11-24T01:45:47.997Z,-1.39
2022-11-24T01:51:20.577Z,-1.37
2022-11-24T01:56:44.638Z,-1.41
2022-11-24T02:02:09.770Z,-1.41
2022-11-24T02:07:34.632Z,-1.46
2022-11-24T02:13:01.277Z,-1.43
2022-11-24T02:18:24.010Z,-1.42
2022-11-24T02:24:03.087Z,-1.43
2022-11-24T02:29:27.354Z,-1.43
2022-11-24T02:34:50.125Z,-1.45
2022-11-24T02:40:13.410Z,-1.45
2022-11-24T02:45:38.011Z,-1.43
2022-11-24T02:51:00.823Z,-1.47
2022-11-24T02:56:23.613Z,-1.48
2022-11-24T03:01:46.420Z,-1.48
2022-11-24T03:07:10.971Z,-1.47
2022-11-24T03:12:33.863Z,-1.45
2022-11-24T03:18:00.106Z,-1.47
2022-11-24T03:23:23.476Z,-1.47
2022-11-24T03:28:46.339Z,-1.46
2022-11-24T03:34:10.922Z,-1.46
2022-11-24T03:39:35.057Z,-1.47
2022-11-24T03:45:04.210Z,-1.45
2022-11-24T03:50:25.089Z,-1.45
2022-11-24T03:55:50.919Z,-1.45
2022-11-24T04:01:14.227Z,-1.43
2022-11-24T04:06:38.303Z,-1.45
2022-11-24T04:12:21.263Z,-1.43
2022-11-24T04:17:45.851Z,-1.47
2022-11-24T04:23:09.323Z,-1.47
2022-11-24T04:28:32.055Z,-1.47
2022-11-24T04:33:54.728Z,-1.45
2022-11-24T04:39:20.140Z,-1.43
2022-11-24T04:44:43.919Z,-1.45
2022-11-24T04:50:08.433Z,-1.39
2022-11-24T04:55:32.099Z,-1.35
2022-11-24T05:00:54.842Z,-1.39
2022-11-24T05:06:18.966Z,-1.38
2022-11-24T05:11:43.123Z,-1.37
2022-11-24T05:17:05.948Z,-1.33
2022-11-24T05:22:29.281Z,-1.31
2022-11-24T05:27:51.943Z,-1.33
2022-11-24T05:33:19.604Z,-1.31
2022-11-24T05:38:53.977Z,-1.26
2022-11-24T05:44:16.822Z,-1.36
2022-11-24T05:49:39.937Z,-1.41
2022-11-24T05:55:02.312Z,-1.42
2022-11-24T06:00:25.365Z,-1.42
2022-11-24T06:05:49.770Z,-1.45
2022-11-24T06:11:18.637Z,-1.47
2022-11-24T06:16:41.242Z,-1.47
2022-11-24T06:22:03.626Z,-1.48
2022-11-24T06:27:26.308Z,-1.45
2022-11-24T06:32:49.883Z,-1.48
2022-11-24T06:38:13.283Z,-1.50
2022-11-24T06:43:36.133Z,-1.52
2022-11-24T06:49:00.226Z,-1.57
2022-11-24T06:54:25.595Z,-1.56
2022-11-24T06:59:47.879Z,-1.55
2022-11-24T07:05:10.227Z,-1.50
2022-11-24T07:10:32.551Z,-1.48
2022-11-24T07:15:56.779Z,-1.40
2022-11-24T07:21:20.783Z,-1.31
2022-11-24T07:26:43.747Z,-1.34
2022-11-24T07:32:06.107Z,-1.31
2022-11-24T07:37:31.503Z,-1.31
2022-11-24T07:42:53.436Z,-1.21
2022-11-24T07:48:15.780Z,-1.17
2022-11-24T07:53:38.338Z,-1.22
2022-11-24T07:59:01.195Z,-1.14
2022-11-24T08:04:23.891Z,-1.10
2022-11-24T08:09:46.109Z,-1.08
2022-11-24T08:15:11.118Z,-1.11
2022-11-24T08:20:33.127Z,-1.06
2022-11-24T08:25:57.264Z,-1.08
2022-11-24T08:31:30.805Z,-1.09
2022-11-24T08:36:53.109Z,-1.19
2022-11-24T08:42:15.571Z,-1.18
2022-11-24T08:47:38.261Z,-1.19
2022-11-24T08:53:00.534Z,-1.20
2022-11-24T08:58:24.958Z,-1.20
2022-11-24T09:03:50.718Z,-1.22
2022-11-24T09:09:16.267Z,-1.30
2022-11-24T09:14:38.581Z,-1.32
2022-11-24T09:25:40.332Z,-1.16
2022-11-24T09:31:02.588Z,-1.02
2022-11-24T09:36:27.179Z,-0.97
2022-11-24T09:42:00.288Z,-0.92
2022-11-24T09:47:44.374Z,-0.84
2022-11-24T09:53:37.018Z,-0.82
2022-11-24T09:59:07.588Z,-0.88
2022-11-24T10:04:46.512Z,-0.84
2022-11-24T10:10:13.990Z,-0.88
2022-11-24T10:16:11.777Z,-0.85
2022-11-24T10:21:48.117Z,-0.98
2022-11-24T10:27:18.909Z,-0.99
2022-11-24T10:32:45.439Z,-0.83
2022-11-24T10:38:32.441Z,-0.78
2022-11-24T10:43:55.954Z,-0.85
2022-11-24T10:49:26.589Z,-0.87
2022-11-24T10:55:05.290Z,-0.74
2022-11-24T11:00:37.390Z,-0.81
2022-11-24T11:06:19.270Z,-0.72
2022-11-24T11:11:44.960Z,-0.65
2022-11-24T11:17:10.904Z,-0.56
2022-11-24T11:22:38.002Z,-0.49
2022-11-24T11:28:08.638Z,-0.47
2022-11-24T11:39:06.867Z,-0.69
2022-11-24T11:44:49.050Z,-0.60
2022-11-24T11:50:13.148Z,-0.57
2022-11-24T11:55:52.385Z,-0.47
2022-11-24T12:01:26.434Z,-0.68
2022-11-24T12:07:15.829Z,-0.64
2022-11-24T12:13:11.118Z,-0.57
2022-11-24T12:19:02.831Z,-0.43
2022-11-24T12:24:31.318Z,-0.56
2022-11-24T12:30:01.543Z,-0.55
2022-11-24T12:35:44.067Z,-0.60
2022-11-24T12:41:43.138Z,-0.44
2022-11-24T12:47:19.574Z,-0.61
2022-11-24T12:52:59.303Z,-0.55
2022-11-24T12:58:51.444Z,-0.50
2022-11-24T13:04:54.772Z,-0.54
2022-11-24T13:10:57.873Z,-0.60
2022-11-24T13:16:59.578Z,-0.47
2022-11-24T13:22:05.314Z,-0.60
2022-11-24T13:27:48.983Z,-0.65
2022-11-24T13:33:37.136Z,-0.70
2022-11-24T13:39:02.143Z,-0.68
2022-11-24T13:44:39.797Z,-0.57
2022-11-24T13:50:03.182Z,-0.59
2022-11-24T13:55:39.439Z,-0.67
2022-11-24T14:01:41.356Z,-0.76
2022-11-24T14:07:11.356Z,-0.73
2022-11-24T14:12:39.105Z,-0.75
2022-11-24T14:18:01.682Z,-0.70
2022-11-24T14:23:25.863Z,-0.65
2022-11-24T14:28:48.306Z,-0.62
2022-11-24T14:34:26.642Z,-0.68
2022-11-24T14:39:50.647Z,-0.68
2022-11-24T14:45:17.115Z,-0.80
2022-11-24T14:50:41.226Z,-0.87
2022-11-24T14:56:14.960Z,-0.95
2022-11-24T15:01:47.833Z,-0.80
2022-11-24T15:07:32.080Z,-0.92
2022-11-24T15:13:03.837Z,-0.95
2022-11-24T15:18:40.451Z,-0.94
2022-11-24T15:24:24.898Z,-0.94
2022-11-24T15:29:47.415Z,-0.93
2022-11-24T15:35:14.807Z,-0.97
2022-11-24T15:40:37.901Z,-0.96
2022-11-24T15:46:00.591Z,-1.02
2022-11-24T15:51:27.021Z,-1.03
2022-11-24T15:56:53.292Z,-0.87
2022-11-24T16:02:16.139Z,-0.98
2022-11-24T16:07:38.490Z,-1.03
2022-11-24T16:13:00.739Z,-1.08
2022-11-24T16:18:24.178Z,-1.02
2022-11-24T16:23:48.353Z,-0.95
2022-11-24T16:29:10.968Z,-0.93
2022-11-24T16:34:34.875Z,-0.87
2022-11-24T16:39:58.782Z,-0.98
2022-11-24T16:45:23.490Z,-0.84
2022-11-24T16:50:48.328Z,-0.85
2022-11-24T16:56:12.651Z,-0.81
2022-11-24T17:01:36.666Z,-0.88
2022-11-24T17:06:59.502Z,-0.95
2022-11-24T17:12:21.833Z,-0.98
2022-11-24T17:18:08.360Z,-0.93
2022-11-24T17:23:09.217Z,-0.89
2022-11-24T17:28:32.269Z,-0.84
2022-11-24T17:33:58.931Z,-0.84
2022-11-24T17:39:25.181Z,-0.85
2022-11-24T17:44:47.667Z,-0.82
2022-11-24T17:50:10.391Z,-0.82
2022-11-24T17:55:32.876Z,-0.93
2022-11-24T18:00:56.079Z,-0.90
2022-11-24T18:06:29.142Z,-0.88
2022-11-24T18:11:52.924Z,-0.96
2022-11-24T18:17:15.219Z,-0.91
2022-11-24T18:23:04.193Z,-0.94
2022-11-24T18:28:01.514Z,-0.99
2022-11-24T18:33:24.958Z,-0.99
2022-11-24T18:38:49.146Z,-1.04
2022-11-24T18:44:13.755Z,-1.04
2022-11-24T18:49:36.177Z,-0.98
2022-11-24T18:55:00.806Z,-1.03
2022-11-24T19:00:25.972Z,-0.92
2022-11-24T19:05:48.779Z,-0.93
2022-11-24T19:11:12.333Z,-0.95
2022-11-24T19:16:37.109Z,-0.93
2022-11-24T19:21:59.909Z,-0.91
2022-11-24T19:27:23.505Z,-0.90
2022-11-24T19:32:45.985Z,-0.88
2022-11-24T19:38:12.331Z,-0.80
2022-11-24T19:43:33.654Z,-0.76
2022-11-24T19:48:59.615Z,-0.77
2022-11-24T19:54:23.680Z,-0.77
2022-11-24T19:59:46.153Z,-0.77
2022-11-24T20:05:08.438Z,-0.82
2022-11-24T20:10:31.163Z,-0.94
2022-11-24T20:15:53.408Z,-0.88
2022-11-24T20:21:22.988Z,-0.85
2022-11-24T20:26:49.343Z,-0.87
2022-11-24T20:32:15.407Z,-0.83
2022-11-24T20:37:38.159Z,-0.81
2022-11-24T20:43:00.944Z,-0.82
2022-11-24T20:48:23.265Z,-0.83
2022-11-24T20:53:45.908Z,-0.79
2022-11-24T20:59:09.349Z,-0.75
2022-11-24T21:04:37.185Z,-0.76
2022-11-24T21:09:59.692Z,-0.77
2022-11-24T21:15:24.003Z,-0.82
2022-11-24T21:20:46.933Z,-0.88
2022-11-24T21:26:16.840Z,-0.84
2022-11-24T21:31:40.809Z,-0.74
2022-11-24T21:37:03.236Z,-0.82
2022-11-24T21:42:25.444Z,-0.85
2022-11-24T21:47:47.786Z,-0.84
2022-11-24T21:53:11.956Z,-0.86
2022-11-24T21:58:34.798Z,-0.90
2022-11-24T22:03:59.258Z,-0.89
2022-11-24T22:09:22.865Z,-0.89
2022-11-24T22:14:45.781Z,-0.80
2022-11-24T22:20:09.080Z,-0.75
2022-11-24T22:25:31.259Z,-0.73
2022-11-24T22:30:54.204Z,-0.69
2022-11-24T22:36:18.867Z,-0.70
2022-11-24T22:41:41.967Z,-0.68
2022-11-24T22:47:04.164Z,-0.68
2022-11-24T22:52:27.333Z,-0.69
2022-11-24T22:57:52.221Z,-0.70
2022-11-24T23:03:13.638Z,-0.72
2022-11-24T23:08:36.532Z,-0.77
2022-11-24T23:14:02.446Z,-0.79
2022-11-24T23:19:25.623Z,-0.78
2022-11-24T23:24:48.453Z,-0.78
2022-11-24T23:30:10.981Z,-0.80
2022-11-24T23:35:33.204Z,-0.78
2022-11-24T23:40:55.417Z,-0.78
2022-11-24T23:46:24.371Z,-0.80
2022-11-24T23:51:47.734Z,-0.81
2022-11-24T23:57:10.035Z,-0.82
